createdAt,value
2019-06-01T00:01:40.348Z,101930.95
2019-06-01T00:04:08.955Z,101933.36
2019-06-01T00:06:38.559Z,101929.77
2019-06-01T00:09:07.793Z,101895.42
2019-06-01T00:11:36.252Z,101916.90
2019-06-01T00:14:04.861Z,101924.63
2019-06-01T00:16:33.394Z,101916.91
2019-06-01T00:19:05.170Z,101917.12
2019-06-01T00:21:33.635Z,101916.17
2019-06-01T00:24:02.110Z,101915.88
2019-06-01T00:26:30.587Z,101909.34
2019-06-01T00:28:59.128Z,101907.03
2019-06-01T00:31:27.889Z,101911.44
2019-06-01T00:33:56.372Z,101909.95
2019-06-01T00:36:25.116Z,101911.02
2019-06-01T00:38:53.950Z,101911.20
2019-06-01T00:41:22.474Z,101911.20
2019-06-01T00:43:50.957Z,101907.21
2019-06-01T00:46:19.449Z,101903.56
2019-06-01T00:48:47.969Z,101895.38
2019-06-01T00:51:24.703Z,101898.63
2019-06-01T00:53:53.621Z,101904.44
2019-06-01T00:56:22.085Z,101906.59
2019-06-01T00:58:51.850Z,101912.17
2019-06-01T01:01:20.579Z,101907.67
2019-06-01T01:03:50.188Z,101909.97
2019-06-01T01:06:18.859Z,101911.28
2019-06-01T01:08:48.877Z,101911.91
2019-06-01T01:11:17.533Z,101910.21
2019-06-01T01:13:47.194Z,101904.70
2019-06-01T01:16:15.807Z,101909.75
2019-06-01T01:18:45.500Z,101909.75
2019-06-01T01:21:14.143Z,101910.94
2019-06-01T01:23:42.614Z,101906.28
2019-06-01T01:26:11.160Z,101911.75
2019-06-01T01:28:39.614Z,101907.25
2019-06-01T01:31:13.790Z,101908.95
2019-06-01T01:33:38.352Z,101900.01
2019-06-01T01:36:06.847Z,101895.62
2019-06-01T01:38:40.245Z,101899.11
2019-06-01T01:41:08.658Z,101899.22
2019-06-01T01:43:37.154Z,101896.60
2019-06-01T01:46:05.633Z,101894.27
2019-06-01T01:48:34.423Z,101888.80
2019-06-01T01:51:03.289Z,101894.56
2019-06-01T01:53:31.767Z,101887.42
2019-06-01T01:56:01.211Z,101885.73
2019-06-01T01:58:29.733Z,101888.06
2019-06-01T02:00:58.870Z,101879.22
2019-06-01T02:03:28.699Z,101882.98
2019-06-01T02:05:57.507Z,101882.36
2019-06-01T02:08:26.028Z,101878.03
2019-06-01T02:10:55.419Z,101882.47
2019-06-01T02:13:23.975Z,101882.25
2019-06-01T02:15:54.102Z,101875.74
2019-06-01T02:18:22.752Z,101875.74
2019-06-01T02:20:52.284Z,101874.37
2019-06-01T02:23:20.896Z,101872.60
2019-06-01T02:25:49.403Z,101875.64
2019-06-01T02:28:17.879Z,101869.12
2019-06-01T02:30:46.576Z,101876.27
2019-06-01T02:33:15.408Z,101877.75
2019-06-01T02:35:43.904Z,101869.77
2019-06-01T02:38:12.532Z,101867.66
2019-06-01T02:40:41.013Z,101871.14
2019-06-01T02:43:09.824Z,101866.00
2019-06-01T02:45:38.311Z,101865.04
2019-06-01T02:48:07.122Z,101862.30
2019-06-01T02:50:35.629Z,101867.66
2019-06-01T02:53:04.109Z,101863.04
2019-06-01T02:55:32.843Z,101863.67
2019-06-01T02:58:02.413Z,101865.26
2019-06-01T03:01:12.044Z,101856.20
2019-06-01T03:03:40.582Z,101856.83
2019-06-01T03:06:09.047Z,101852.72
2019-06-01T03:08:37.748Z,101849.36
2019-06-01T03:11:06.285Z,101852.61
2019-06-01T03:13:34.755Z,101846.31
2019-06-01T03:16:03.716Z,101845.58
2019-06-01T03:18:33.796Z,101846.62
2019-06-01T03:21:04.685Z,101843.87
2019-06-01T03:23:32.592Z,101842.84
2019-06-01T03:26:02.101Z,101849.58
2019-06-01T03:28:30.922Z,101854.02
2019-06-01T03:31:01.076Z,101851.80
2019-06-01T03:33:29.618Z,101860.31
2019-06-01T03:35:58.102Z,101852.64
2019-06-01T03:38:26.588Z,101857.16
2019-06-01T03:40:55.234Z,101855.27
2019-06-01T03:43:23.699Z,101857.49
2019-06-01T03:45:52.191Z,101854.86
2019-06-01T03:48:20.911Z,101846.43
2019-06-01T03:50:49.372Z,101850.02
2019-06-01T03:53:17.851Z,101855.05
2019-06-01T03:55:46.344Z,101856.13
2019-06-01T03:58:14.835Z,101855.39
2019-06-01T04:00:43.351Z,101852.31
2019-06-01T04:03:12.104Z,101851.50
2019-06-01T04:05:41.233Z,101851.28
2019-06-01T04:08:09.784Z,101848.54
2019-06-01T04:10:38.258Z,101849.39
2019-06-01T04:13:07.561Z,101850.87
2019-06-01T04:15:36.101Z,101844.54
2019-06-01T04:18:05.970Z,101844.32
2019-06-01T04:20:34.836Z,101839.47
2019-06-01T04:23:04.553Z,101843.39
2019-06-01T04:25:33.128Z,101855.38
2019-06-01T04:28:02.157Z,101851.91
2019-06-01T04:30:30.944Z,101843.91
2019-06-01T04:32:59.440Z,101841.06
2019-06-01T04:35:27.922Z,101845.27
2019-06-01T04:37:56.400Z,101842.12
2019-06-01T04:40:25.119Z,101836.98
2019-06-01T04:42:53.874Z,101839.83
2019-06-01T04:45:22.582Z,101842.12
2019-06-01T04:47:51.296Z,101834.53
2019-06-01T04:50:19.770Z,101837.92
2019-06-01T04:52:48.512Z,101837.37
2019-06-01T04:55:16.963Z,101834.01
2019-06-01T04:57:45.434Z,101841.70
2019-06-01T05:00:27.041Z,101835.70
2019-06-01T05:02:44.164Z,101827.59
2019-06-01T05:05:13.371Z,101824.52
2019-06-01T05:07:42.120Z,101829.78
2019-06-01T05:10:11.621Z,101829.59
2019-06-01T05:12:40.198Z,101833.80
2019-06-01T05:15:09.905Z,101835.28
2019-06-01T05:17:38.396Z,101836.32
2019-06-01T05:20:08.200Z,101833.58
2019-06-01T05:22:36.770Z,101830.13
2019-06-01T05:25:06.702Z,101833.30
2019-06-01T05:27:35.376Z,101838.37
2019-06-01T05:30:04.144Z,101829.70
2019-06-01T05:32:32.648Z,101830.66
2019-06-01T05:35:01.225Z,101829.91
2019-06-01T05:37:29.694Z,101821.79
2019-06-01T05:39:58.276Z,101826.85
2019-06-01T05:42:26.753Z,101826.40
2019-06-01T05:44:55.256Z,101824.61
2019-06-01T05:47:24.005Z,101823.57
2019-06-01T05:49:52.520Z,101828.83
2019-06-01T05:52:20.994Z,101827.55
2019-06-01T05:54:49.484Z,101819.11
2019-06-01T05:57:19.332Z,101834.61
2019-06-01T05:59:48.223Z,101825.64
2019-06-01T06:02:17.482Z,101828.71
2019-06-01T06:04:46.061Z,101822.15
2019-06-01T06:07:14.804Z,101827.44
2019-06-01T06:09:43.312Z,101819.31
2019-06-01T06:12:13.110Z,101822.45
2019-06-01T06:14:41.682Z,101819.81
2019-06-01T06:17:13.773Z,101828.36
2019-06-01T06:19:40.949Z,101819.29
2019-06-01T06:22:09.446Z,101818.64
2019-06-01T06:24:37.923Z,101814.92
2019-06-01T06:27:06.410Z,101804.05
2019-06-01T06:29:34.902Z,101798.46
2019-06-01T06:32:03.442Z,101797.25
2019-06-01T06:34:31.931Z,101801.79
2019-06-01T06:37:00.421Z,101786.18
2019-06-01T06:39:28.906Z,101785.76
2019-06-01T06:41:57.652Z,101798.63
2019-06-01T06:44:26.414Z,101783.86
2019-06-01T06:46:54.941Z,101789.97
2019-06-01T06:49:23.411Z,101797.02
2019-06-01T06:51:51.964Z,101795.22
2019-06-01T06:54:20.460Z,101804.82
2019-06-01T06:56:48.948Z,101793.52
2019-06-01T06:59:18.444Z,101797.34
2019-06-01T07:01:47.162Z,101798.16
2019-06-01T07:04:16.997Z,101802.37
2019-06-01T07:06:45.694Z,101811.20
2019-06-01T07:09:14.186Z,101802.64
2019-06-01T07:11:42.692Z,101820.56
2019-06-01T07:14:11.460Z,101810.91
2019-06-01T07:16:39.962Z,101772.37
2019-06-01T07:19:10.045Z,101810.20
2019-06-01T07:21:38.543Z,101798.91
2019-06-01T07:24:07.045Z,101812.01
2019-06-01T07:26:35.566Z,101799.47
2019-06-01T07:29:04.047Z,101803.40
2019-06-01T07:31:32.795Z,101794.95
2019-06-01T07:34:01.270Z,101792.66
2019-06-01T07:36:29.774Z,101800.14
2019-06-01T07:38:58.861Z,101800.45
2019-06-01T07:41:28.820Z,101798.28
2019-06-01T07:43:57.415Z,101795.06
2019-06-01T07:46:26.896Z,101803.05
2019-06-01T07:48:55.469Z,101811.12
2019-06-01T07:51:25.184Z,101812.19
2019-06-01T07:53:53.812Z,101814.00
2019-06-01T07:56:22.843Z,101806.37
2019-06-01T07:58:51.342Z,101801.25
2019-06-01T08:01:19.837Z,101798.50
2019-06-01T08:03:48.321Z,101790.34
2019-06-01T08:06:16.811Z,101801.50
2019-06-01T08:08:45.307Z,101793.70
2019-06-01T08:11:13.795Z,101789.14
2019-06-01T08:13:42.345Z,101800.28
2019-06-01T08:16:10.836Z,101806.54
2019-06-01T08:18:39.304Z,101813.17
2019-06-01T08:21:07.779Z,101807.39
2019-06-01T08:23:36.252Z,101803.86
2019-06-01T08:26:04.763Z,101808.01
2019-06-01T08:28:33.220Z,101794.89
2019-06-01T08:31:01.719Z,101793.48
2019-06-01T08:33:33.154Z,101811.33
2019-06-01T08:36:01.555Z,101816.55
2019-06-01T08:38:31.568Z,101815.64
2019-06-01T08:41:00.176Z,101802.75
2019-06-01T08:43:29.733Z,101791.67
2019-06-01T08:45:58.327Z,101800.77
2019-06-01T08:48:27.712Z,101802.23
2019-06-01T08:50:56.160Z,101798.71
2019-06-01T08:53:25.760Z,101811.85
2019-06-01T08:55:54.212Z,101805.06
2019-06-01T08:58:24.097Z,101813.22
2019-06-01T09:00:52.672Z,101815.81
2019-06-01T09:03:21.144Z,101814.16
2019-06-01T09:05:49.643Z,101800.70
2019-06-01T09:08:18.395Z,101790.30
2019-06-01T09:10:46.875Z,101800.70
2019-06-01T09:13:15.390Z,101796.44
2019-06-01T09:15:44.277Z,101792.92
2019-06-01T09:18:12.870Z,101796.44
2019-06-01T09:20:41.409Z,101801.00
2019-06-01T09:23:09.914Z,101801.23
2019-06-01T09:25:38.411Z,101792.70
2019-06-01T09:28:06.906Z,101790.55
2019-06-01T09:30:36.264Z,101788.93
2019-06-01T09:33:04.944Z,101784.03
2019-06-01T09:35:53.616Z,101786.95
2019-06-01T09:38:03.908Z,101785.44
2019-06-01T09:40:33.548Z,101778.22
2019-06-01T09:43:02.590Z,101786.63
2019-06-01T09:45:32.829Z,101780.59
2019-06-01T09:48:01.297Z,101779.73
2019-06-01T09:50:29.757Z,101790.61
2019-06-01T09:52:58.253Z,101786.18
2019-06-01T09:55:27.535Z,101785.14
2019-06-01T09:57:56.955Z,101771.52
2019-06-01T10:00:25.675Z,101786.06
2019-06-01T10:02:54.422Z,101785.13
2019-06-01T10:05:22.909Z,101782.06
2019-06-01T10:07:51.392Z,101785.09
2019-06-01T10:10:19.875Z,101794.42
2019-06-01T10:12:48.373Z,101780.31
2019-06-01T10:15:16.833Z,101780.17
2019-06-01T10:17:45.312Z,101785.50
2019-06-01T10:20:13.778Z,101789.87
2019-06-01T10:22:42.279Z,101780.66
2019-06-01T10:25:10.754Z,101786.52
2019-06-01T10:27:39.235Z,101795.45
2019-06-01T10:30:08.072Z,101780.45
2019-06-01T10:32:37.881Z,101781.30
2019-06-01T10:35:06.732Z,101780.91
2019-06-01T10:37:35.403Z,101786.98
2019-06-01T10:40:03.876Z,101794.28
2019-06-01T10:42:34.013Z,101791.31
2019-06-01T10:45:03.019Z,101789.09
2019-06-01T10:47:31.745Z,101781.47
2019-06-01T10:50:00.256Z,101788.67
2019-06-01T10:52:28.744Z,101773.63
2019-06-01T10:54:57.494Z,101800.07
2019-06-01T10:57:26.006Z,101791.34
2019-06-01T10:59:54.761Z,101802.59
2019-06-01T11:02:23.223Z,101796.91
2019-06-01T11:04:51.711Z,101787.45
2019-06-01T11:07:20.228Z,101788.29
2019-06-01T11:09:48.695Z,101782.00
2019-06-01T11:12:17.774Z,101768.95
2019-06-01T11:14:46.546Z,101775.97
2019-06-01T11:17:15.016Z,101774.00
2019-06-01T11:19:43.778Z,101774.41
2019-06-01T11:22:12.248Z,101771.52
2019-06-01T11:24:41.553Z,101769.98
2019-06-01T11:27:10.275Z,101775.19
2019-06-01T11:29:46.034Z,101780.05
2019-06-01T11:32:08.955Z,101774.47
2019-06-01T11:34:38.473Z,101767.77
2019-06-01T11:37:07.121Z,101782.92
2019-06-01T11:39:36.340Z,101765.11
2019-06-01T11:42:05.205Z,101762.36
2019-06-01T11:44:34.707Z,101766.53
2019-06-01T11:47:03.198Z,101773.50
2019-06-01T11:49:31.712Z,101767.50
2019-06-01T11:52:00.224Z,101766.14
2019-06-01T11:54:28.735Z,101767.44
2019-06-01T11:56:57.295Z,101749.77
2019-06-01T11:59:25.756Z,101753.91
2019-06-01T12:01:54.495Z,101761.71
2019-06-01T12:04:22.975Z,101755.34
2019-06-01T12:06:51.543Z,101751.25
2019-06-01T12:09:20.019Z,101761.59
2019-06-01T12:11:48.535Z,101756.61
2019-06-01T12:14:17.029Z,101748.45
2019-06-01T12:16:46.794Z,101742.40
2019-06-01T12:19:15.380Z,101737.75
2019-06-01T12:21:45.234Z,101744.45
2019-06-01T12:24:13.849Z,101738.09
2019-06-01T12:26:43.487Z,101738.81
2019-06-01T12:29:12.050Z,101727.63
2019-06-01T12:31:41.647Z,101732.27
2019-06-01T12:34:10.112Z,101739.08
2019-06-01T12:36:40.574Z,101734.09
2019-06-01T12:39:09.296Z,101738.55
2019-06-01T12:41:37.767Z,101740.41
2019-06-01T12:44:15.603Z,101737.34
2019-06-01T12:46:44.351Z,101735.15
2019-06-01T12:49:13.098Z,101734.70
2019-06-01T12:51:42.547Z,101737.28
2019-06-01T12:54:11.416Z,101735.24
2019-06-01T12:56:40.772Z,101727.39
2019-06-01T12:59:09.355Z,101719.50
2019-06-01T13:01:37.813Z,101721.02
2019-06-01T13:04:06.296Z,101722.33
2019-06-01T13:06:34.781Z,101718.66
2019-06-01T13:09:04.395Z,101714.53
2019-06-01T13:11:32.863Z,101716.16
2019-06-01T13:14:04.245Z,101710.04
2019-06-01T13:16:31.653Z,101708.27
2019-06-01T13:19:00.150Z,101705.26
2019-06-01T13:21:28.619Z,101704.34
2019-06-01T13:23:57.128Z,101700.67
2019-06-01T13:26:25.615Z,101697.92
2019-06-01T13:28:54.136Z,101700.10
2019-06-01T13:31:22.928Z,101698.66
2019-06-01T13:33:52.385Z,101690.80
2019-06-01T13:36:22.103Z,101689.21
2019-06-01T13:38:50.862Z,101688.92
2019-06-01T13:41:19.354Z,101689.27
2019-06-01T13:43:47.845Z,101684.22
2019-06-01T13:46:16.308Z,101690.64
2019-06-01T13:48:45.550Z,101683.19
2019-06-01T13:51:14.063Z,101700.64
2019-06-01T13:53:42.551Z,101689.56
2019-06-01T13:56:11.078Z,101693.42
2019-06-01T13:58:39.615Z,101693.91
2019-06-01T14:01:08.319Z,101682.37
2019-06-01T14:03:36.954Z,101671.64
2019-06-01T14:06:05.411Z,101674.52
2019-06-01T14:08:33.904Z,101668.45
2019-06-01T14:11:02.390Z,101676.53
2019-06-01T14:13:30.941Z,101682.52
2019-06-01T14:15:59.414Z,101686.17
2019-06-01T14:18:27.905Z,101686.36
2019-06-01T14:20:56.410Z,101685.40
2019-06-01T14:23:24.888Z,101694.34
2019-06-01T14:25:54.264Z,101698.48
2019-06-01T14:28:23.038Z,101697.09
2019-06-01T14:30:52.299Z,101696.16
2019-06-01T14:33:20.830Z,101700.77
2019-06-01T14:35:50.410Z,101707.04
2019-06-01T14:38:19.001Z,101706.23
2019-06-01T14:40:48.847Z,101710.66
2019-06-01T14:43:17.475Z,101711.90
2019-06-01T14:45:47.346Z,101713.64
2019-06-01T14:48:16.058Z,101710.48
2019-06-01T14:50:44.645Z,101701.24
2019-06-01T14:53:13.156Z,101711.08
2019-06-01T14:55:41.628Z,101703.75
2019-06-01T14:58:10.142Z,101708.03
2019-06-01T15:00:38.597Z,101716.25
2019-06-01T15:03:07.180Z,101717.89
2019-06-01T15:05:35.687Z,101723.17
2019-06-01T15:08:04.175Z,101721.84
2019-06-01T15:10:32.683Z,101717.52
2019-06-01T15:13:03.258Z,101711.00
2019-06-01T15:15:31.434Z,101712.38
2019-06-01T15:18:03.903Z,101720.16
2019-06-01T15:20:30.380Z,101721.80
2019-06-01T15:22:58.872Z,101725.14
2019-06-01T15:25:27.361Z,101721.78
2019-06-01T15:27:56.873Z,101711.98
2019-06-01T15:30:25.630Z,101717.06
2019-06-01T15:32:54.350Z,101726.91
2019-06-01T15:35:22.850Z,101727.23
2019-06-01T15:37:54.730Z,101730.58
2019-06-01T15:40:22.005Z,101728.19
2019-06-01T15:42:51.812Z,101721.33
2019-06-01T15:45:20.903Z,101724.14
2019-06-01T15:47:49.376Z,101717.86
2019-06-01T15:50:18.520Z,101721.44
2019-06-01T15:52:47.212Z,101730.80
2019-06-01T15:55:15.715Z,101715.63
2019-06-01T15:57:44.222Z,101710.72
2019-06-01T16:00:13.785Z,101705.84
2019-06-01T16:02:42.726Z,101707.42
2019-06-01T16:05:12.086Z,101707.97
2019-06-01T16:07:40.807Z,101708.98
2019-06-01T16:10:09.293Z,101705.92
2019-06-01T16:12:37.781Z,101705.64
2019-06-01T16:15:06.354Z,101699.84
2019-06-01T16:17:34.811Z,101702.14
2019-06-01T16:20:04.121Z,101706.88
2019-06-01T16:22:32.568Z,101697.52
2019-06-01T16:25:02.451Z,101698.64
2019-06-01T16:27:31.801Z,101698.64
2019-06-01T16:30:02.066Z,101707.19
2019-06-01T16:32:30.722Z,101700.26
2019-06-01T16:34:59.243Z,101704.41
2019-06-01T16:37:27.716Z,101704.51
2019-06-01T16:40:02.527Z,101703.31
2019-06-01T16:42:26.398Z,101702.98
2019-06-01T16:44:55.307Z,101696.80
2019-06-01T16:47:23.879Z,101700.94
2019-06-01T16:49:52.697Z,101700.05
2019-06-01T16:52:21.152Z,101699.01
2019-06-01T16:54:49.664Z,101702.33
2019-06-01T16:57:18.516Z,101706.48
2019-06-01T16:59:47.010Z,101704.80
2019-06-01T17:02:15.474Z,101702.64
2019-06-01T17:04:44.039Z,101704.80
2019-06-01T17:07:12.885Z,101698.16
2019-06-01T17:09:41.446Z,101695.38
2019-06-01T17:12:09.903Z,101700.77
2019-06-01T17:14:38.402Z,101697.60
2019-06-01T17:17:07.513Z,101704.04
2019-06-01T17:19:36.034Z,101704.84
2019-06-01T17:22:05.600Z,101704.08
2019-06-01T17:24:34.560Z,101716.23
2019-06-01T17:27:03.964Z,101708.74
2019-06-01T17:29:32.599Z,101717.56
2019-06-01T17:32:16.775Z,101723.41
2019-06-01T17:34:31.345Z,101710.13
2019-06-01T17:37:00.610Z,101716.21
2019-06-01T17:39:29.127Z,101688.37
2019-06-01T17:41:57.943Z,101711.31
2019-06-01T17:44:26.717Z,101713.50
2019-06-01T17:46:55.205Z,101714.83
2019-06-01T17:49:23.663Z,101713.98
2019-06-01T17:51:52.157Z,101719.83
2019-06-01T17:54:20.614Z,101725.27
2019-06-01T17:56:49.095Z,101725.30
2019-06-01T17:59:17.589Z,101735.54
2019-06-01T18:01:46.049Z,101726.67
2019-06-01T18:04:14.540Z,101728.79
2019-06-01T18:06:43.044Z,101726.67
2019-06-01T18:09:12.267Z,101720.83
2019-06-01T18:11:41.134Z,101722.68
2019-06-01T18:14:10.276Z,101718.81
2019-06-01T18:16:38.949Z,101714.88
2019-06-01T18:19:08.382Z,101706.70
2019-06-01T18:21:37.031Z,101713.92
2019-06-01T18:24:07.570Z,101718.42
2019-06-01T18:26:35.716Z,101714.71
2019-06-01T18:29:04.477Z,101714.89
2019-06-01T18:31:33.175Z,101710.17
2019-06-01T18:34:03.194Z,101713.39
2019-06-01T18:36:31.823Z,101709.32
2019-06-01T18:39:00.316Z,101714.23
2019-06-01T18:41:28.814Z,101714.37
2019-06-01T18:43:57.299Z,101708.60
2019-06-01T18:46:26.007Z,101717.40
2019-06-01T18:48:54.492Z,101720.12
2019-06-01T18:51:23.262Z,101713.41
2019-06-01T18:53:51.736Z,101718.61
2019-06-01T18:56:20.241Z,101715.30
2019-06-01T18:58:48.740Z,101714.17
2019-06-01T19:01:20.858Z,101719.83
2019-06-01T19:03:47.910Z,101723.69
2019-06-01T19:06:16.401Z,101724.85
2019-06-01T19:08:44.878Z,101726.16
2019-06-01T19:11:29.365Z,101727.94
2019-06-01T19:13:43.597Z,101724.02
2019-06-01T19:16:12.239Z,101727.16
2019-06-01T19:18:40.690Z,101727.50
2019-06-01T19:21:09.163Z,101721.85
2019-06-01T19:23:37.639Z,101724.95
2019-06-01T19:26:10.081Z,101721.57
2019-06-01T19:28:36.382Z,101711.33
2019-06-01T19:31:04.885Z,101718.81
2019-06-01T19:33:33.699Z,101721.23
2019-06-01T19:36:02.518Z,101718.13
2019-06-01T19:38:30.978Z,101724.53
2019-06-01T19:40:59.860Z,101724.63
2019-06-01T19:43:28.322Z,101733.09
2019-06-01T19:45:56.814Z,101733.34
2019-06-01T19:48:25.300Z,101730.95
2019-06-01T19:50:53.833Z,101722.63
2019-06-01T19:53:22.350Z,101718.83
2019-06-01T19:55:50.835Z,101718.67
2019-06-01T19:58:19.520Z,101722.50
2019-06-01T20:00:48.094Z,101728.60
2019-06-01T20:03:20.200Z,101730.75
2019-06-01T20:05:46.804Z,101732.11
2019-06-01T20:08:16.248Z,101734.25
2019-06-01T20:10:44.754Z,101737.36
2019-06-01T20:13:13.206Z,101731.70
2019-06-01T20:15:41.729Z,101732.18
2019-06-01T20:18:10.641Z,101734.08
2019-06-01T20:20:39.547Z,101735.63
2019-06-01T20:23:08.026Z,101737.27
2019-06-01T20:25:36.484Z,101736.89
2019-06-01T20:28:04.961Z,101737.77
2019-06-01T20:30:33.775Z,101736.23
2019-06-01T20:33:02.254Z,101727.98
2019-06-01T20:35:31.060Z,101730.73
2019-06-01T20:38:00.146Z,101729.16
2019-06-01T20:40:28.622Z,101729.08
2019-06-01T20:42:57.465Z,101733.48
2019-06-01T20:45:25.955Z,101727.17
2019-06-01T20:47:54.423Z,101731.56
2019-06-01T20:50:22.948Z,101733.92
2019-06-01T20:52:51.399Z,101734.80
2019-06-01T20:55:21.231Z,101730.77
2019-06-01T20:57:49.795Z,101725.22
2019-06-01T21:00:19.627Z,101724.52
2019-06-01T21:02:48.535Z,101714.97
2019-06-01T21:05:17.929Z,101720.28
2019-06-01T21:07:46.621Z,101715.52
2019-06-01T21:10:16.180Z,101712.89
2019-06-01T21:12:46.061Z,101715.69
2019-06-01T21:15:15.184Z,101724.16
2019-06-01T21:17:43.774Z,101726.90
2019-06-01T21:20:12.354Z,101727.95
2019-06-01T21:22:40.851Z,101729.75
2019-06-01T21:25:09.400Z,101728.48
2019-06-01T21:27:37.864Z,101723.37
2019-06-01T21:30:06.515Z,101727.07
2019-06-01T21:32:35.013Z,101716.09
2019-06-01T21:35:03.495Z,101719.16
2019-06-01T21:37:31.989Z,101718.84
2019-06-01T21:40:00.762Z,101720.16
2019-06-01T21:42:29.261Z,101724.08
2019-06-01T21:44:57.773Z,101714.66
2019-06-01T21:47:26.253Z,101718.02
2019-06-01T21:49:55.015Z,101709.98
2019-06-01T21:52:24.246Z,101713.39
2019-06-01T21:54:52.862Z,101710.12
2019-06-01T21:57:22.333Z,101709.28
2019-06-01T21:59:51.157Z,101708.37
2019-06-01T22:02:20.946Z,101718.17
2019-06-01T22:04:49.599Z,101712.92
2019-06-01T22:07:19.188Z,101712.73
2019-06-01T22:09:48.062Z,101712.78
2019-06-01T22:12:17.240Z,101717.85
2019-06-01T22:14:46.035Z,101717.55
2019-06-01T22:17:14.622Z,101712.80
2019-06-01T22:19:43.111Z,101715.48
2019-06-01T22:22:11.579Z,101706.97
2019-06-01T22:24:40.384Z,101707.72
2019-06-01T22:27:09.032Z,101712.55
2019-06-01T22:29:37.724Z,101714.34
2019-06-01T22:32:06.214Z,101709.19
2019-06-01T22:34:34.685Z,101704.59
2019-06-01T22:37:03.177Z,101705.02
2019-06-01T22:39:31.675Z,101700.30
2019-06-01T22:42:00.169Z,101696.57
2019-06-01T22:44:28.625Z,101690.95
2019-06-01T22:46:57.087Z,101696.42
2019-06-01T22:49:26.782Z,101694.96
2019-06-01T22:51:55.321Z,101690.75
2019-06-01T22:54:25.029Z,101684.27
2019-06-01T22:56:53.688Z,101684.64
2019-06-01T22:59:22.509Z,101688.13
2019-06-01T23:01:51.624Z,101688.33
2019-06-01T23:04:20.937Z,101681.34
2019-06-01T23:06:49.479Z,101682.84
2019-06-01T23:09:18.008Z,101683.72
2019-06-01T23:11:46.476Z,101683.30
2019-06-01T23:14:15.198Z,101684.93
2019-06-01T23:16:44.008Z,101682.29
2019-06-01T23:19:12.786Z,101682.48
2019-06-01T23:21:41.267Z,101686.79
2019-06-01T23:24:09.745Z,101681.77
2019-06-01T23:26:38.547Z,101686.79
2019-06-01T23:29:07.030Z,101696.03
2019-06-01T23:31:35.804Z,101686.33
2019-06-01T23:34:04.621Z,101690.44
2019-06-01T23:36:33.386Z,101680.98
2019-06-01T23:39:02.178Z,101686.88
2019-06-01T23:41:30.878Z,101682.25
2019-06-01T23:44:11.309Z,101686.77
2019-06-01T23:46:31.078Z,101681.13
2019-06-01T23:48:59.664Z,101679.32
2019-06-01T23:51:29.542Z,101681.02
2019-06-01T23:53:58.183Z,101678.19
2019-06-01T23:56:27.736Z,101674.84
2019-06-01T23:58:56.295Z,101666.60
